KORF/ORF METAR and TAF weather

Enter ICAO airport designator
Station Type Date Time Source
KORF METAR 2018/12/15 01:51 UTC NOAA

KORF 150151Z 10005KT 10SM BKN120 14/13 A3016 RMK AO2 RAE43 SLP213 P0000 T01390133


Station Type Date Time Source
KORF Decoded METAR 2018/12/15 01:51 UTC NOAA

NORFOLK INTERNATIONAL AIRPORT , VA, United States (KORF) 36-54N 076-12W 14M
Dec 14, 2018 - 08:51 PM EST / 2018.12.15 0151 UTC
Wind: from the E (100 degrees) at 6 MPH (5 KT):0
Visibility: 10 mile(s):0
Sky conditions: mostly cloudy
Precipitation last hour: A trace
Temperature: 57.0 F (13.9 C)
Dew Point: 55.9 F (13.3 C)
Relative Humidity: 96%
Pressure (altimeter): 30.16 in. Hg (1021 hPa)
ob: KORF 150151Z 10005KT 10SM BKN120 14/13 A3016 RMK AO2 RAE43 SLP213 P0000 T01390133
cycle: 2

Station Type Date Time Source
KORF TAF 2018/12/14 18:33 UTC NOAA

TAF KORF 141730Z 1418/1518 04007KT P6SM OVC080
FM142000 08008KT 5SM -RA OVC030
FM142300 09008KT 1 1/2SM RA OVC010
FM150500 12013G20KT 3SM RA OVC008
FM150800 17012KT 2SM +RA OVC010
FM151400 09006KT 1 1/2SM -RA OVC005


Example: see airport list